createdAt,value
2019-05-25T00:00:51.833Z,22.70
2019-05-25T00:03:20.356Z,20.07
2019-05-25T00:05:49.772Z,24.20
2019-05-25T00:08:18.069Z,26.67
2019-05-25T00:10:46.538Z,22.57
2019-05-25T00:13:14.884Z,19.63
2019-05-25T00:15:43.203Z,22.30
2019-05-25T00:18:11.679Z,24.43
2019-05-25T00:20:40.969Z,29.23
2019-05-25T00:23:09.261Z,27.17
2019-05-25T00:25:37.713Z,27.83
2019-05-25T00:28:07.116Z,25.47
2019-05-25T00:30:35.427Z,27.87
2019-05-25T00:33:03.821Z,31.50
2019-05-25T00:35:32.296Z,29.27
2019-05-25T00:38:00.588Z,28.37
2019-05-25T00:40:28.919Z,31.67
2019-05-25T00:42:57.217Z,31.57
2019-05-25T00:45:25.562Z,29.00
2019-05-25T00:47:53.984Z,29.00
2019-05-25T00:50:22.271Z,30.33
2019-05-25T00:52:50.606Z,32.07
2019-05-25T00:55:19.033Z,28.13
2019-05-25T00:57:47.454Z,31.27
2019-05-25T01:00:16.151Z,31.13
2019-05-25T01:02:44.579Z,30.23
2019-05-25T01:05:13.262Z,31.70
2019-05-25T01:07:41.562Z,31.63
2019-05-25T01:10:10.189Z,38.60
2019-05-25T01:12:38.511Z,39.17
2019-05-25T01:15:09.244Z,38.27
2019-05-25T01:17:37.629Z,43.73
2019-05-25T01:20:09.118Z,45.27
2019-05-25T01:22:37.433Z,42.60
2019-05-25T01:25:06.359Z,38.50
2019-05-25T01:27:34.669Z,43.37
2019-05-25T01:30:04.269Z,42.53
2019-05-25T01:32:32.731Z,44.60
2019-05-25T01:35:01.093Z,46.53
2019-05-25T01:37:30.486Z,47.67
2019-05-25T01:39:58.817Z,52.47
2019-05-25T01:42:27.234Z,50.33
2019-05-25T01:44:55.677Z,60.40
2019-05-25T01:47:24.206Z,59.73
2019-05-25T01:49:52.533Z,62.73
2019-05-25T01:52:20.997Z,389.00
2019-05-25T01:54:59.415Z,221.13
2019-05-25T01:57:19.496Z,47.07
2019-05-25T01:59:47.927Z,122.03
2019-05-25T02:02:16.270Z,224.87
2019-05-25T02:04:44.554Z,64.77
2019-05-25T02:07:12.936Z,427.83
2019-05-25T02:09:41.321Z,222.50
2019-05-25T02:12:09.631Z,56.87
2019-05-25T02:14:38.041Z,326.80
2019-05-25T02:17:06.346Z,325.53
2019-05-25T02:19:34.661Z,280.53
2019-05-25T02:22:03.124Z,120.07
2019-05-25T02:24:31.528Z,254.20
2019-05-25T02:26:59.914Z,180.50
2019-05-25T02:29:29.248Z,412.57
2019-05-25T02:31:57.523Z,377.57
2019-05-25T02:34:25.976Z,277.07
2019-05-25T02:36:54.364Z,598.53
2019-05-25T02:39:22.639Z,635.30
2019-05-25T02:41:51.035Z,447.77
2019-05-25T02:44:19.524Z,422.80
2019-05-25T02:46:47.807Z,314.87
2019-05-25T02:49:16.091Z,492.63
2019-05-25T02:51:44.439Z,668.43
2019-05-25T02:54:12.733Z,112.77
2019-05-25T02:56:41.051Z,91.30
2019-05-25T02:59:09.398Z,64.93
2019-05-25T03:01:37.670Z,59.73
2019-05-25T03:04:05.961Z,60.10
2019-05-25T03:06:34.866Z,457.63
2019-05-25T03:09:05.635Z,238.83
2019-05-25T03:11:34.359Z,57.83
2019-05-25T03:14:03.325Z,58.23
2019-05-25T03:16:31.717Z,66.67
2019-05-25T03:19:00.027Z,59.40
2019-05-25T03:21:28.431Z,59.33
2019-05-25T03:23:56.754Z,55.63
2019-05-25T03:26:25.146Z,56.03
2019-05-25T03:28:53.560Z,44.93
2019-05-25T03:31:21.853Z,49.40
2019-05-25T03:33:51.282Z,46.43
2019-05-25T03:36:19.643Z,48.97
2019-05-25T03:38:48.112Z,48.27
2019-05-25T03:41:16.532Z,48.47
2019-05-25T03:43:44.907Z,47.67
2019-05-25T03:46:13.196Z,47.17
2019-05-25T03:48:41.517Z,38.63
2019-05-25T03:51:09.844Z,39.03
2019-05-25T03:53:38.267Z,38.80
2019-05-25T03:56:06.721Z,38.03
2019-05-25T03:58:35.119Z,37.37
2019-05-25T04:01:03.532Z,38.10
2019-05-25T04:03:31.834Z,41.73
2019-05-25T04:06:00.262Z,36.30
2019-05-25T04:08:28.639Z,41.67
2019-05-25T04:10:57.082Z,44.47
2019-05-25T04:13:25.431Z,38.80
2019-05-25T04:15:53.731Z,38.30
2019-05-25T04:18:22.203Z,40.60
2019-05-25T04:20:53.062Z,43.87
2019-05-25T04:23:21.289Z,44.67
2019-05-25T04:25:49.716Z,38.87
2019-05-25T04:28:18.051Z,42.87
2019-05-25T04:30:46.346Z,47.40
2019-05-25T04:33:14.726Z,45.00
2019-05-25T04:35:43.129Z,39.50
2019-05-25T04:38:11.515Z,50.60
2019-05-25T04:40:39.947Z,36.83
2019-05-25T04:43:08.377Z,42.20
2019-05-25T04:45:36.698Z,47.80
2019-05-25T04:48:05.173Z,41.57
2019-05-25T04:50:33.473Z,42.90
2019-05-25T04:53:01.819Z,38.27
2019-05-25T04:55:30.348Z,43.37
2019-05-25T04:57:58.636Z,38.27
2019-05-25T05:00:26.972Z,33.80
2019-05-25T05:02:55.410Z,31.93
2019-05-25T05:05:23.704Z,28.33
2019-05-25T05:07:52.243Z,25.57
2019-05-25T05:10:20.663Z,28.97
2019-05-25T05:12:49.501Z,23.73
2019-05-25T05:15:19.866Z,23.50
2019-05-25T05:17:48.223Z,21.57
2019-05-25T05:20:16.834Z,22.67
2019-05-25T05:22:45.251Z,23.80
2019-05-25T05:25:13.674Z,24.13
2019-05-25T05:27:41.982Z,24.03
2019-05-25T05:30:10.716Z,26.83
2019-05-25T05:32:39.049Z,25.40
2019-05-25T05:35:09.487Z,37.83
2019-05-25T05:37:40.006Z,25.93
2019-05-25T05:40:08.821Z,23.67
2019-05-25T05:42:40.197Z,20.83
2019-05-25T05:45:10.159Z,24.60
2019-05-25T05:47:42.839Z,22.77
2019-05-25T05:50:11.834Z,26.63
2019-05-25T05:52:40.737Z,24.07
2019-05-25T05:55:12.318Z,22.23
2019-05-25T05:57:40.604Z,23.60
2019-05-25T06:00:10.400Z,23.73
2019-05-25T06:02:38.976Z,23.23
2019-05-25T06:05:07.279Z,24.17
2019-05-25T06:07:35.735Z,22.20
2019-05-25T06:10:06.966Z,19.23
2019-05-25T06:12:35.368Z,18.50
2019-05-25T06:15:04.562Z,20.17
2019-05-25T06:17:33.096Z,21.93
2019-05-25T06:20:01.571Z,21.30
2019-05-25T06:22:29.976Z,20.67
2019-05-25T06:24:58.354Z,21.50
2019-05-25T06:27:28.107Z,19.27
2019-05-25T06:29:56.466Z,20.53
2019-05-25T06:32:25.897Z,21.37
2019-05-25T06:34:54.211Z,20.83
2019-05-25T06:37:22.518Z,20.07
2019-05-25T06:39:50.968Z,20.77
2019-05-25T06:42:19.279Z,22.00
2019-05-25T06:44:47.683Z,21.63
2019-05-25T06:47:16.217Z,20.07
2019-05-25T06:49:44.995Z,27.17
2019-05-25T06:52:13.469Z,20.43
2019-05-25T06:54:41.877Z,19.07
2019-05-25T06:57:10.341Z,18.23
2019-05-25T06:59:38.778Z,19.60
2019-05-25T07:02:07.148Z,18.50
2019-05-25T07:04:35.530Z,16.20
2019-05-25T07:07:03.954Z,20.10
2019-05-25T07:09:32.471Z,15.60
2019-05-25T07:12:01.509Z,16.10
2019-05-25T07:14:29.900Z,17.00
2019-05-25T07:16:58.331Z,13.93
2019-05-25T07:19:27.618Z,14.20
2019-05-25T07:21:56.087Z,11.75
2019-05-25T07:24:25.058Z,12.75
2019-05-25T07:26:53.586Z,13.72
2019-05-25T07:29:21.903Z,16.45
2019-05-25T07:31:50.386Z,12.60
2019-05-25T07:34:18.848Z,13.25
2019-05-25T07:36:47.221Z,14.85
2019-05-25T07:39:15.661Z,12.07
2019-05-25T07:41:44.078Z,14.63
2019-05-25T07:44:12.383Z,12.98
2019-05-25T07:46:41.798Z,14.65
2019-05-25T07:49:10.223Z,12.28
2019-05-25T07:51:38.562Z,14.78
2019-05-25T07:54:07.536Z,13.35
2019-05-25T07:56:35.969Z,12.43
2019-05-25T07:59:04.701Z,12.50
2019-05-25T08:01:33.192Z,10.85
2019-05-25T08:04:01.619Z,12.45
2019-05-25T08:06:30.048Z,9.78
2019-05-25T08:08:58.501Z,12.20
2019-05-25T08:11:26.832Z,11.08
2019-05-25T08:13:55.146Z,15.72
2019-05-25T08:16:23.474Z,12.75
2019-05-25T08:18:51.794Z,9.53
2019-05-25T08:21:20.239Z,11.28
2019-05-25T08:23:48.775Z,13.13
2019-05-25T08:26:17.279Z,11.95
2019-05-25T08:28:45.704Z,12.37
2019-05-25T08:31:32.093Z,14.65
2019-05-25T08:34:00.621Z,10.70
2019-05-25T08:36:29.828Z,9.60
2019-05-25T08:38:58.519Z,9.13
2019-05-25T08:41:26.960Z,9.50
2019-05-25T08:43:55.273Z,10.78
2019-05-25T08:46:23.488Z,8.48
2019-05-25T08:49:04.635Z,12.45
2019-05-25T08:51:33.006Z,6.53
2019-05-25T08:54:01.339Z,9.25
2019-05-25T08:56:30.889Z,9.28
2019-05-25T08:58:59.296Z,8.00
2019-05-25T09:01:27.666Z,7.15
2019-05-25T09:03:56.066Z,8.80
2019-05-25T09:06:24.489Z,9.83
2019-05-25T09:08:52.826Z,12.10
2019-05-25T09:11:21.238Z,6.95
2019-05-25T09:13:49.721Z,8.20
2019-05-25T09:16:18.297Z,6.12
2019-05-25T09:18:46.631Z,5.97
2019-05-25T09:21:15.096Z,5.40
2019-05-25T09:23:44.469Z,8.05
2019-05-25T09:26:13.612Z,4.47
2019-05-25T09:28:42.171Z,5.10
2019-05-25T09:31:10.544Z,5.72
2019-05-25T09:33:38.969Z,4.67
2019-05-25T09:36:07.326Z,4.35
2019-05-25T09:38:35.809Z,5.05
2019-05-25T09:41:04.122Z,5.70
2019-05-25T09:43:33.996Z,5.42
2019-05-25T09:46:03.317Z,4.20
2019-05-25T09:48:31.913Z,7.80
2019-05-25T09:51:15.180Z,4.20
2019-05-25T09:53:40.979Z,4.47
2019-05-25T09:56:09.379Z,4.33
2019-05-25T09:58:37.709Z,5.37
2019-05-25T10:01:06.314Z,7.08
2019-05-25T10:03:34.602Z,5.85
2019-05-25T10:06:10.677Z,4.47
2019-05-25T10:08:33.430Z,6.58
2019-05-25T10:11:01.999Z,8.28
2019-05-25T10:13:30.298Z,5.05
2019-05-25T10:15:58.746Z,4.45
2019-05-25T10:18:27.894Z,7.12
2019-05-25T10:20:56.221Z,5.97
2019-05-25T10:23:24.915Z,4.85
2019-05-25T10:25:53.374Z,5.28
2019-05-25T10:28:21.844Z,5.17
2019-05-25T10:30:50.317Z,6.33
2019-05-25T10:33:21.777Z,5.50
2019-05-25T10:35:49.339Z,4.60
2019-05-25T10:38:17.784Z,4.08
2019-05-25T10:40:46.224Z,4.80
2019-05-25T10:43:14.576Z,5.85
2019-05-25T10:45:43.027Z,4.75
2019-05-25T10:48:15.585Z,4.47
2019-05-25T10:50:45.584Z,4.15
2019-05-25T10:53:26.528Z,3.75
2019-05-25T10:55:55.072Z,3.62
2019-05-25T10:58:23.621Z,3.85
2019-05-25T11:00:53.163Z,5.30
2019-05-25T11:03:21.611Z,2.98
2019-05-25T11:05:50.076Z,4.55
2019-05-25T11:08:18.629Z,4.05
2019-05-25T11:10:46.969Z,5.00
2019-05-25T11:13:16.859Z,5.67
2019-05-25T11:15:45.325Z,2.60
2019-05-25T11:18:13.811Z,3.12
2019-05-25T11:20:42.243Z,3.22
2019-05-25T11:23:10.828Z,4.28
2019-05-25T11:25:39.149Z,3.20
2019-05-25T11:28:08.394Z,4.15
2019-05-25T11:30:38.096Z,4.42
2019-05-25T11:33:06.533Z,3.55
2019-05-25T11:35:35.044Z,3.85
2019-05-25T11:38:03.499Z,3.62
2019-05-25T11:40:34.763Z,3.52
2019-05-25T11:43:03.328Z,3.05
2019-05-25T11:45:31.999Z,5.78
2019-05-25T11:48:01.831Z,3.20
2019-05-25T11:50:30.311Z,5.65
2019-05-25T11:52:58.809Z,5.87
2019-05-25T11:55:37.136Z,4.80
2019-05-25T11:58:05.990Z,4.47
2019-05-25T12:00:34.448Z,5.50
2019-05-25T12:03:03.301Z,5.20
2019-05-25T12:05:31.722Z,4.10
2019-05-25T12:08:00.202Z,5.30
2019-05-25T12:10:28.754Z,4.08
2019-05-25T12:12:57.180Z,4.95
2019-05-25T12:15:25.643Z,5.95
2019-05-25T12:17:54.397Z,4.95
2019-05-25T12:20:23.084Z,10.30
2019-05-25T12:22:52.551Z,6.10
2019-05-25T12:25:22.179Z,3.40
2019-05-25T12:27:50.708Z,7.92
2019-05-25T12:30:19.737Z,3.58
2019-05-25T12:32:48.462Z,4.75
2019-05-25T12:35:18.056Z,6.25
2019-05-25T12:37:46.640Z,6.12
2019-05-25T12:40:15.679Z,4.55
2019-05-25T12:42:45.970Z,3.87
2019-05-25T12:45:15.000Z,4.08
2019-05-25T12:47:43.605Z,4.87
2019-05-25T12:50:13.664Z,4.15
2019-05-25T12:52:44.137Z,3.20
2019-05-25T12:55:12.767Z,4.53
2019-05-25T12:57:51.573Z,4.30
2019-05-25T13:00:20.642Z,5.22
2019-05-25T13:02:48.970Z,3.35
2019-05-25T13:05:32.677Z,4.10
2019-05-25T13:07:47.704Z,4.00
2019-05-25T13:10:16.241Z,5.37
2019-05-25T13:12:44.749Z,4.30
2019-05-25T13:15:13.416Z,4.00
2019-05-25T13:17:41.819Z,5.97
2019-05-25T13:20:11.983Z,3.65
2019-05-25T13:22:40.476Z,7.22
2019-05-25T13:25:09.096Z,4.05
2019-05-25T13:27:37.852Z,9.00
2019-05-25T13:30:12.845Z,3.80
2019-05-25T13:32:41.202Z,4.33
2019-05-25T13:35:10.375Z,4.47
2019-05-25T13:37:38.751Z,4.65
2019-05-25T13:40:09.807Z,10.85
2019-05-25T13:42:38.197Z,3.45
2019-05-25T13:45:08.035Z,7.55
2019-05-25T13:47:36.365Z,5.37
2019-05-25T13:50:07.155Z,13.62
2019-05-25T13:52:37.336Z,23.55
2019-05-25T13:55:06.840Z,4.17
2019-05-25T13:57:35.129Z,3.30
2019-05-25T14:00:16.507Z,4.47
2019-05-25T14:02:44.952Z,6.30
2019-05-25T14:05:13.648Z,5.05
2019-05-25T14:07:42.256Z,7.15
2019-05-25T14:10:10.705Z,4.92
2019-05-25T14:12:39.111Z,3.80
2019-05-25T14:15:09.386Z,4.45
2019-05-25T14:17:37.853Z,4.12
2019-05-25T14:20:06.669Z,5.78
2019-05-25T14:22:36.173Z,5.28
2019-05-25T14:25:04.879Z,3.87
2019-05-25T14:27:33.217Z,11.48
2019-05-25T14:30:01.683Z,4.20
2019-05-25T14:32:30.036Z,4.35
2019-05-25T14:34:58.486Z,6.12
2019-05-25T14:37:27.011Z,6.30
2019-05-25T14:39:56.242Z,6.10
2019-05-25T14:42:24.608Z,5.55
2019-05-25T14:44:53.125Z,5.45
2019-05-25T14:47:21.926Z,4.90
2019-05-25T14:49:50.216Z,4.50
2019-05-25T14:52:18.579Z,4.00
2019-05-25T14:54:46.874Z,4.35
2019-05-25T14:57:15.313Z,5.03
2019-05-25T14:59:43.821Z,5.90
2019-05-25T15:02:22.634Z,6.30
2019-05-25T15:04:51.037Z,5.67
2019-05-25T15:07:19.396Z,6.58
2019-05-25T15:09:47.772Z,5.60
2019-05-25T15:12:16.097Z,6.47
2019-05-25T15:14:44.587Z,4.90
2019-05-25T15:17:12.909Z,6.08
2019-05-25T15:19:41.466Z,6.17
2019-05-25T15:22:10.392Z,4.87
2019-05-25T15:24:40.143Z,3.90
2019-05-25T15:27:08.729Z,5.53
2019-05-25T15:29:55.091Z,4.83
2019-05-25T15:32:24.545Z,5.12
2019-05-25T15:34:52.929Z,6.33
2019-05-25T15:37:21.234Z,4.67
2019-05-25T15:39:49.807Z,5.60
2019-05-25T15:42:19.515Z,7.58
2019-05-25T15:47:35.366Z,5.05
2019-05-25T15:50:05.353Z,6.15
2019-05-25T15:52:33.915Z,5.45
2019-05-25T15:55:03.453Z,5.37
2019-05-25T15:57:31.951Z,5.67
2019-05-25T16:00:00.298Z,5.40
2019-05-25T16:02:39.192Z,4.12
2019-05-25T16:05:07.742Z,4.35
2019-05-25T16:07:41.182Z,4.50
2019-05-25T16:10:10.687Z,3.77
2019-05-25T16:12:39.036Z,4.78
2019-05-25T16:15:07.976Z,4.65
2019-05-25T16:17:36.493Z,4.75
2019-05-25T16:20:05.388Z,5.08
2019-05-25T16:22:34.464Z,4.67
2019-05-25T16:25:03.132Z,4.95
2019-05-25T16:27:31.589Z,28.00
2019-05-25T16:30:00.173Z,12.23
2019-05-25T16:32:28.507Z,9.70
2019-05-25T16:34:58.736Z,7.35
2019-05-25T16:37:27.540Z,9.10
2019-05-25T16:39:56.206Z,16.25
2019-05-25T16:42:24.583Z,13.15
2019-05-25T16:44:53.218Z,8.45
2019-05-25T16:47:21.552Z,7.15
2019-05-25T16:49:50.259Z,6.03
2019-05-25T16:52:37.022Z,5.90
2019-05-25T16:57:52.824Z,5.62
2019-05-25T17:00:28.024Z,6.95
2019-05-25T17:03:06.439Z,9.90
2019-05-25T17:05:34.851Z,5.92
2019-05-25T17:08:03.280Z,9.70
2019-05-25T17:10:32.148Z,8.05
2019-05-25T17:13:00.574Z,7.53
2019-05-25T17:15:28.968Z,6.30
2019-05-25T17:17:58.028Z,5.85
2019-05-25T17:20:26.448Z,12.47
2019-05-25T17:22:56.341Z,7.50
2019-05-25T17:25:28.399Z,7.90
2019-05-25T17:27:57.265Z,7.00
2019-05-25T17:30:44.346Z,6.33
2019-05-25T17:33:14.686Z,6.87
2019-05-25T17:35:44.123Z,6.33
2019-05-25T17:38:12.998Z,8.75
2019-05-25T17:40:41.917Z,7.75
2019-05-25T17:43:10.358Z,10.63
2019-05-25T17:45:38.728Z,8.35
2019-05-25T17:48:07.279Z,7.97
2019-05-25T17:50:36.306Z,6.80
2019-05-25T17:53:04.908Z,9.38
2019-05-25T17:55:51.266Z,10.68
2019-05-25T17:58:20.761Z,8.23
2019-05-25T18:00:49.963Z,10.20
2019-05-25T18:03:33.657Z,8.70
2019-05-25T18:06:02.121Z,9.90
2019-05-25T18:08:30.486Z,7.97
2019-05-25T18:10:58.991Z,10.18
2019-05-25T18:13:29.063Z,13.33
2019-05-25T18:15:57.769Z,10.00
2019-05-25T18:18:26.635Z,8.20
2019-05-25T18:20:55.093Z,7.57
2019-05-25T18:23:25.505Z,8.60
2019-05-25T18:25:53.924Z,8.33
2019-05-25T18:28:22.269Z,8.78
2019-05-25T18:30:50.761Z,7.20
2019-05-25T18:33:19.170Z,7.67
2019-05-25T18:35:48.569Z,6.53
2019-05-25T18:38:17.046Z,7.03
2019-05-25T18:40:46.735Z,8.33
2019-05-25T18:43:15.588Z,7.33
2019-05-25T18:45:44.041Z,9.97
2019-05-25T18:48:14.419Z,7.07
2019-05-25T18:50:42.952Z,6.30
2019-05-25T18:53:11.620Z,9.03
2019-05-25T18:55:42.971Z,7.10
2019-05-25T18:58:11.847Z,9.23
2019-05-25T19:00:40.976Z,9.40
2019-05-25T19:03:09.568Z,6.73
2019-05-25T19:05:50.917Z,8.40
2019-05-25T19:08:19.467Z,6.00
2019-05-25T19:10:47.919Z,6.43
2019-05-25T19:13:16.347Z,6.40
2019-05-25T19:15:44.886Z,7.00
2019-05-25T19:18:13.329Z,6.77
2019-05-25T19:20:43.447Z,5.60
2019-05-25T19:23:11.925Z,7.30
2019-05-25T19:25:40.379Z,6.73
2019-05-25T19:28:08.902Z,6.23
2019-05-25T19:30:38.454Z,5.57
2019-05-25T19:33:06.925Z,5.95
2019-05-25T19:35:35.489Z,6.00
2019-05-25T19:38:04.097Z,5.87
2019-05-25T19:40:32.524Z,5.37
2019-05-25T19:43:00.999Z,6.50
2019-05-25T19:45:29.525Z,6.63
2019-05-25T19:47:59.863Z,7.07
2019-05-25T19:50:28.279Z,5.60
2019-05-25T19:52:57.061Z,7.33
2019-05-25T19:55:25.823Z,7.07
2019-05-25T19:57:54.307Z,6.03
2019-05-25T20:00:23.988Z,6.83
2019-05-25T20:02:52.424Z,5.57
2019-05-25T20:05:23.154Z,6.63
2019-05-25T20:07:52.481Z,7.97
2019-05-25T20:10:21.211Z,6.23
2019-05-25T20:12:49.681Z,7.70
2019-05-25T20:15:18.574Z,7.73
2019-05-25T20:17:47.407Z,6.30
2019-05-25T20:20:16.054Z,5.77
2019-05-25T20:22:45.720Z,8.97
2019-05-25T20:25:14.129Z,5.67
2019-05-25T20:27:42.589Z,5.90
2019-05-25T20:30:12.347Z,8.70
2019-05-25T20:32:40.762Z,10.00
2019-05-25T20:35:09.366Z,9.93
2019-05-25T20:37:38.762Z,10.40
2019-05-25T20:40:08.568Z,8.40
2019-05-25T20:42:38.512Z,7.37
2019-05-25T20:45:07.245Z,7.13
2019-05-25T20:47:37.349Z,11.27
2019-05-25T20:50:06.854Z,7.43
2019-05-25T20:52:35.161Z,8.27
2019-05-25T20:55:04.244Z,7.50
2019-05-25T20:57:33.018Z,10.73
2019-05-25T21:00:01.571Z,10.27
2019-05-25T21:02:30.771Z,8.67
2019-05-25T21:04:59.427Z,10.30
2019-05-25T21:07:28.190Z,10.00
2019-05-25T21:09:56.736Z,7.70
2019-05-25T21:12:25.291Z,7.27
2019-05-25T21:14:53.625Z,9.93
2019-05-25T21:17:22.199Z,7.77
2019-05-25T21:19:50.815Z,7.63
2019-05-25T21:22:19.225Z,8.50
2019-05-25T21:24:47.659Z,9.33
2019-05-25T21:27:16.529Z,8.77
2019-05-25T21:29:44.969Z,8.23
2019-05-25T21:32:14.155Z,10.47
2019-05-25T21:34:42.568Z,11.33
2019-05-25T21:37:11.926Z,8.03
2019-05-25T21:39:40.336Z,5.90
2019-05-25T21:42:09.066Z,7.13
2019-05-25T21:44:37.445Z,12.70
2019-05-25T21:47:05.952Z,8.53
2019-05-25T21:49:34.329Z,9.87
2019-05-25T21:52:02.925Z,8.97
2019-05-25T21:54:31.257Z,8.70
2019-05-25T21:56:59.921Z,10.80
2019-05-25T21:59:28.234Z,12.50
2019-05-25T22:01:58.931Z,12.37
2019-05-25T22:04:27.489Z,11.07
2019-05-25T22:06:56.082Z,14.70
2019-05-25T22:09:36.899Z,15.43
2019-05-25T22:12:05.242Z,19.90
2019-05-25T22:14:33.850Z,18.87
2019-05-25T22:17:02.274Z,19.80
2019-05-25T22:19:30.659Z,17.73
2019-05-25T22:22:00.264Z,19.10
2019-05-25T22:24:28.729Z,18.10
2019-05-25T22:26:57.180Z,20.53
2019-05-25T22:29:25.666Z,22.00
2019-05-25T22:31:54.174Z,25.27
2019-05-25T22:34:22.569Z,24.07
2019-05-25T22:36:51.026Z,26.53
2019-05-25T22:39:19.529Z,26.00
2019-05-25T22:41:47.966Z,25.40
2019-05-25T22:44:16.331Z,19.60
2019-05-25T22:46:44.946Z,19.73
2019-05-25T22:49:13.255Z,20.07
2019-05-25T22:51:41.534Z,22.83
2019-05-25T22:54:10.001Z,22.57
2019-05-25T22:56:38.451Z,20.57
2019-05-25T22:59:06.846Z,21.17
2019-05-25T23:01:35.384Z,22.37
2019-05-25T23:04:03.784Z,22.43
2019-05-25T23:06:32.212Z,22.23
2019-05-25T23:09:00.774Z,21.23
2019-05-25T23:11:41.736Z,21.10
2019-05-25T23:14:10.350Z,23.77
2019-05-25T23:16:39.898Z,26.43
2019-05-25T23:19:08.251Z,26.27
2019-05-25T23:21:36.799Z,27.93
2019-05-25T23:24:05.191Z,24.20
2019-05-25T23:26:33.555Z,24.93
2019-05-25T23:29:01.999Z,25.87
2019-05-25T23:31:30.296Z,27.83
2019-05-25T23:33:58.654Z,28.30
2019-05-25T23:36:27.102Z,27.60
2019-05-25T23:38:55.518Z,29.83
2019-05-25T23:41:23.952Z,24.60
2019-05-25T23:43:54.537Z,27.23
2019-05-25T23:46:22.939Z,26.30
2019-05-25T23:48:51.244Z,25.43
2019-05-25T23:51:19.574Z,22.60
2019-05-25T23:53:47.896Z,21.47
2019-05-25T23:56:16.204Z,22.83
2019-05-25T23:58:44.551Z,22.57
